createdAt,value
2018-12-12T00:00:10.735Z,92.90
2018-12-12T00:02:39.297Z,92.78
2018-12-12T00:05:08.404Z,92.46
2018-12-12T00:07:37.178Z,93.94
2018-12-12T00:10:08.216Z,94.19
2018-12-12T00:12:37.236Z,94.21
2018-12-12T00:15:06.045Z,94.37
2018-12-12T00:17:35.006Z,93.42
2018-12-12T00:20:10.123Z,93.79
2018-12-12T00:22:38.632Z,94.13
2018-12-12T00:30:10.093Z,94.13
2018-12-12T00:32:38.859Z,94.44
2018-12-12T00:35:08.368Z,93.62
2018-12-12T00:37:36.966Z,93.82
2018-12-12T00:40:05.792Z,93.35
2018-12-12T00:42:35.032Z,93.52
2018-12-12T00:45:03.554Z,93.16
2018-12-12T00:47:32.089Z,92.65
2018-12-12T00:50:00.657Z,93.14
2018-12-12T00:52:29.271Z,93.25
2018-12-12T00:54:58.499Z,93.01
2018-12-12T00:57:27.949Z,93.13
2018-12-12T00:59:56.948Z,93.02
2018-12-12T01:02:25.498Z,92.70
2018-12-12T01:04:54.210Z,93.23
2018-12-12T01:07:22.868Z,93.00
2018-12-12T01:09:51.357Z,92.85
2018-12-12T01:12:19.931Z,92.70
2018-12-12T01:14:48.627Z,92.43
2018-12-12T01:17:17.143Z,92.21
2018-12-12T01:19:45.750Z,92.02
2018-12-12T01:22:14.264Z,92.38
2018-12-12T01:24:42.960Z,92.42
2018-12-12T01:27:11.551Z,92.57
2018-12-12T01:29:40.115Z,92.68
2018-12-12T01:32:09.014Z,92.80
2018-12-12T01:34:37.536Z,92.55
2018-12-12T01:37:06.317Z,93.26
2018-12-12T01:39:34.928Z,93.12
2018-12-12T01:42:03.601Z,93.71
2018-12-12T01:44:32.139Z,93.50
2018-12-12T01:47:00.680Z,93.01
2018-12-12T01:49:29.755Z,93.01
2018-12-12T01:51:58.282Z,93.18
2018-12-12T01:54:27.017Z,92.01
2018-12-12T01:56:56.145Z,92.54
2018-12-12T01:59:24.698Z,92.40
2018-12-12T02:01:53.229Z,91.92
2018-12-12T02:04:22.000Z,91.96
2018-12-12T02:06:50.489Z,91.97
2018-12-12T02:09:19.113Z,91.14
2018-12-12T02:11:47.622Z,91.43
2018-12-12T02:14:16.126Z,91.21
2018-12-12T02:16:44.713Z,91.39
2018-12-12T02:19:13.577Z,91.96
2018-12-12T02:21:42.062Z,91.93
2018-12-12T02:24:10.588Z,91.91
2018-12-12T02:26:39.340Z,91.36
2018-12-12T02:29:07.820Z,91.63
2018-12-12T02:31:37.057Z,91.67
2018-12-12T02:34:05.662Z,90.76
2018-12-12T02:36:34.157Z,91.72
2018-12-12T02:39:02.768Z,91.89
2018-12-12T02:41:31.386Z,91.81
2018-12-12T02:43:59.901Z,91.27
2018-12-12T02:46:28.373Z,91.23
2018-12-12T02:48:57.092Z,91.36
2018-12-12T02:51:26.536Z,91.22
2018-12-12T02:53:55.156Z,90.83
2018-12-12T02:56:23.649Z,91.28
2018-12-12T02:58:52.197Z,91.78
2018-12-12T03:01:20.664Z,91.16
2018-12-12T03:03:49.342Z,91.47
2018-12-12T03:06:17.878Z,91.36
2018-12-12T03:08:46.428Z,91.38
2018-12-12T03:11:19.110Z,91.27
2018-12-12T03:13:47.669Z,91.15
2018-12-12T03:16:16.356Z,90.43
2018-12-12T03:18:44.843Z,90.34
2018-12-12T03:21:13.387Z,90.49
2018-12-12T03:23:43.762Z,90.24
2018-12-12T03:26:13.783Z,89.40
2018-12-12T03:28:42.445Z,90.43
2018-12-12T03:31:10.945Z,90.46
2018-12-12T03:33:39.471Z,90.67
2018-12-12T03:36:08.057Z,90.51
2018-12-12T03:38:37.288Z,90.31
2018-12-12T03:41:06.097Z,91.26
2018-12-12T03:43:35.370Z,91.59
2018-12-12T03:46:03.992Z,91.61
2018-12-12T03:48:32.779Z,91.02
2018-12-12T03:51:01.276Z,91.44
2018-12-12T03:53:29.784Z,91.35
2018-12-12T03:55:58.521Z,91.33
2018-12-12T03:58:27.036Z,91.02
2018-12-12T04:00:55.516Z,91.36
2018-12-12T04:03:24.068Z,91.22
2018-12-12T04:05:52.539Z,91.48
2018-12-12T04:08:21.048Z,90.72
2018-12-12T04:10:49.544Z,90.87
2018-12-12T04:13:18.134Z,90.59
2018-12-12T04:15:46.721Z,90.14
2018-12-12T04:18:15.234Z,90.42
2018-12-12T04:20:43.909Z,90.56
2018-12-12T04:23:12.466Z,89.59
2018-12-12T04:25:41.151Z,90.39
2018-12-12T04:28:09.613Z,89.82
2018-12-12T04:30:38.495Z,89.02
2018-12-12T04:33:07.007Z,88.53
2018-12-12T04:35:35.630Z,88.37
2018-12-12T04:38:04.228Z,88.18
2018-12-12T04:40:32.729Z,88.65
2018-12-12T04:43:01.299Z,88.07
2018-12-12T04:45:31.332Z,87.91
2018-12-12T04:47:59.837Z,88.75
2018-12-12T04:50:28.304Z,88.87
2018-12-12T04:52:56.981Z,88.24
2018-12-12T04:55:25.550Z,88.25
2018-12-12T04:57:54.101Z,87.92
2018-12-12T05:00:22.889Z,88.04
2018-12-12T05:02:51.796Z,87.71
2018-12-12T05:05:20.520Z,87.14
2018-12-12T05:07:49.061Z,86.33
2018-12-12T05:10:17.544Z,86.61
2018-12-12T05:12:46.068Z,85.65
2018-12-12T05:15:15.300Z,86.17
2018-12-12T05:17:44.100Z,85.65
2018-12-12T05:20:13.914Z,85.12
2018-12-12T05:22:42.640Z,84.99
2018-12-12T05:25:11.388Z,84.74
2018-12-12T05:27:41.144Z,84.49
2018-12-12T05:30:10.606Z,84.07
2018-12-12T05:32:39.201Z,84.77
2018-12-12T05:35:08.724Z,85.30
2018-12-12T05:37:38.034Z,84.93
2018-12-12T05:40:07.182Z,84.69
2018-12-12T05:42:36.062Z,84.33
2018-12-12T05:45:04.977Z,84.82
2018-12-12T05:47:34.137Z,84.83
2018-12-12T05:50:02.844Z,85.02
2018-12-12T05:52:31.415Z,86.30
2018-12-12T05:55:00.097Z,86.55
2018-12-12T05:57:28.701Z,87.12
2018-12-12T05:59:57.210Z,87.41
2018-12-12T06:02:25.727Z,87.55
2018-12-12T06:04:54.268Z,88.83
2018-12-12T06:07:22.743Z,88.85
2018-12-12T06:09:51.505Z,90.18
2018-12-12T06:12:19.981Z,90.34
2018-12-12T06:14:48.468Z,90.66
2018-12-12T06:17:17.147Z,91.35
2018-12-12T06:19:45.968Z,91.10
2018-12-12T06:22:15.042Z,91.27
2018-12-12T06:24:43.746Z,91.07
2018-12-12T06:27:12.257Z,90.88
2018-12-12T06:29:40.763Z,90.06
2018-12-12T06:32:09.282Z,90.57
2018-12-12T06:34:37.788Z,90.02
2018-12-12T06:37:06.362Z,90.05
2018-12-12T06:39:34.892Z,89.21
2018-12-12T06:42:04.323Z,88.15
2018-12-12T06:44:32.848Z,88.35
2018-12-12T06:47:01.379Z,88.28
2018-12-12T06:49:29.907Z,88.15
2018-12-12T06:51:58.423Z,87.95
2018-12-12T06:54:26.890Z,87.76
2018-12-12T06:56:55.440Z,87.67
2018-12-12T07:01:59.042Z,87.31
2018-12-12T07:04:27.604Z,87.43
2018-12-12T07:06:57.107Z,88.14
2018-12-12T07:09:25.674Z,88.53
2018-12-12T07:11:54.224Z,89.42
2018-12-12T07:14:22.888Z,89.40
2018-12-12T07:16:51.363Z,89.19
2018-12-12T07:19:20.697Z,90.02
2018-12-12T07:21:49.246Z,89.82
2018-12-12T07:24:17.721Z,90.00
2018-12-12T07:26:46.335Z,90.65
2018-12-12T07:29:14.869Z,90.61
2018-12-12T07:31:43.961Z,91.11
2018-12-12T07:34:12.500Z,90.45
2018-12-12T07:36:41.005Z,90.23
2018-12-12T07:39:09.935Z,90.49
2018-12-12T07:41:38.740Z,91.10
2018-12-12T07:44:07.286Z,91.72
2018-12-12T07:46:36.468Z,92.16
2018-12-12T07:49:05.716Z,92.66
2018-12-12T07:51:34.184Z,92.97
2018-12-12T07:54:02.816Z,92.95
2018-12-12T07:56:31.295Z,91.34
2018-12-12T07:58:59.930Z,90.87
2018-12-12T08:01:28.661Z,89.88
2018-12-12T08:03:57.734Z,89.29
2018-12-12T08:06:26.245Z,89.65
2018-12-12T08:08:54.744Z,89.75
2018-12-12T08:11:23.313Z,89.97
2018-12-12T08:13:51.813Z,88.88
2018-12-12T08:16:20.553Z,89.01
2018-12-12T08:18:49.132Z,88.65
2018-12-12T08:21:17.715Z,88.25
2018-12-12T08:23:46.217Z,87.51
2018-12-12T08:26:14.762Z,86.03
2018-12-12T08:28:43.309Z,86.43
2018-12-12T08:31:11.993Z,86.60
2018-12-12T08:33:41.097Z,86.33
2018-12-12T08:36:09.614Z,85.48
2018-12-12T08:38:38.126Z,85.16
2018-12-12T08:41:06.624Z,85.06
2018-12-12T08:43:35.300Z,85.12
2018-12-12T08:46:03.793Z,84.71
2018-12-12T08:48:32.277Z,85.21
2018-12-12T08:51:01.027Z,85.87
2018-12-12T08:53:29.514Z,84.71
2018-12-12T08:55:59.007Z,85.08
2018-12-12T08:58:28.410Z,84.77
2018-12-12T09:00:56.901Z,85.12
2018-12-12T09:03:25.448Z,85.55
2018-12-12T09:05:54.173Z,85.02
2018-12-12T09:08:22.716Z,85.70
2018-12-12T09:10:51.186Z,85.50
2018-12-12T09:13:20.433Z,85.72
2018-12-12T09:15:49.111Z,85.55
2018-12-12T09:18:17.606Z,84.27
2018-12-12T09:20:46.196Z,85.60
2018-12-12T09:23:14.937Z,85.74
2018-12-12T09:25:43.496Z,85.50
2018-12-12T09:28:12.012Z,85.73
2018-12-12T09:30:41.044Z,85.05
2018-12-12T09:33:09.545Z,85.58
2018-12-12T09:35:38.033Z,84.89
2018-12-12T09:38:06.563Z,85.72
2018-12-12T09:40:35.329Z,85.79
2018-12-12T09:43:03.969Z,83.56
2018-12-12T09:45:32.460Z,83.99
2018-12-12T09:48:00.993Z,84.03
2018-12-12T09:50:29.893Z,84.11
2018-12-12T09:52:58.409Z,83.74
2018-12-12T09:55:26.959Z,84.07
2018-12-12T09:57:55.449Z,82.55
2018-12-12T10:00:24.021Z,82.99
2018-12-12T10:02:52.534Z,83.16
2018-12-12T10:05:21.032Z,83.00
2018-12-12T10:07:49.516Z,83.56
2018-12-12T10:10:18.067Z,82.57
2018-12-12T10:12:46.674Z,81.94
2018-12-12T10:15:15.464Z,82.08
2018-12-12T10:17:44.045Z,83.04
2018-12-12T10:20:12.653Z,83.18
2018-12-12T10:22:41.220Z,83.09
2018-12-12T10:25:09.795Z,82.98
2018-12-12T10:27:38.352Z,81.38
2018-12-12T10:30:07.758Z,81.25
2018-12-12T10:32:36.376Z,81.64
2018-12-12T10:35:05.349Z,81.97
2018-12-12T10:37:33.817Z,82.30
2018-12-12T10:40:02.319Z,82.26
2018-12-12T10:42:30.859Z,82.38
2018-12-12T10:44:59.427Z,83.19
2018-12-12T10:47:27.937Z,83.38
2018-12-12T10:49:56.433Z,81.63
2018-12-12T10:52:24.928Z,82.32
2018-12-12T10:54:53.397Z,83.18
2018-12-12T10:57:21.910Z,83.97
2018-12-12T10:59:51.064Z,83.59
2018-12-12T11:02:25.077Z,83.67
2018-12-12T11:04:53.576Z,82.60
2018-12-12T11:07:22.108Z,83.50
2018-12-12T11:09:50.709Z,82.56
2018-12-12T11:12:19.303Z,83.01
2018-12-12T11:14:51.476Z,82.37
2018-12-12T11:17:20.719Z,82.23
2018-12-12T11:19:50.127Z,82.55
2018-12-12T11:22:23.159Z,82.31
2018-12-12T11:24:51.715Z,83.12
2018-12-12T11:27:23.023Z,82.72
2018-12-12T11:29:52.175Z,82.10
2018-12-12T11:32:20.884Z,82.80
2018-12-12T11:34:49.425Z,83.23
2018-12-12T11:37:18.025Z,82.94
2018-12-12T11:39:46.625Z,82.91
2018-12-12T11:42:15.330Z,83.03
2018-12-12T11:44:43.845Z,83.09
2018-12-12T11:47:12.307Z,83.22
2018-12-12T11:49:40.887Z,82.37
2018-12-12T11:52:09.785Z,81.68
2018-12-12T11:54:39.216Z,81.21
2018-12-12T11:57:08.637Z,80.37
2018-12-12T11:59:37.139Z,80.92
2018-12-12T12:02:06.427Z,81.58
2018-12-12T12:04:35.012Z,82.27
2018-12-12T12:07:03.500Z,82.52
2018-12-12T12:09:31.975Z,82.76
2018-12-12T12:12:00.468Z,82.89
2018-12-12T12:14:29.020Z,83.04
2018-12-12T12:16:57.547Z,81.83
2018-12-12T12:19:26.060Z,82.66
2018-12-12T12:21:54.606Z,83.56
2018-12-12T12:24:24.313Z,83.68
2018-12-12T12:26:53.015Z,83.57
2018-12-12T12:29:21.981Z,83.80
2018-12-12T12:31:50.524Z,83.55
2018-12-12T12:34:19.057Z,83.29
2018-12-12T12:36:48.632Z,82.77
2018-12-12T12:39:17.231Z,83.34
2018-12-12T12:41:45.695Z,83.51
2018-12-12T12:44:15.265Z,84.23
2018-12-12T12:46:43.815Z,84.45
2018-12-12T12:49:12.439Z,84.46
2018-12-12T12:51:40.960Z,83.93
2018-12-12T12:54:09.497Z,84.78
2018-12-12T12:56:38.069Z,85.16
2018-12-12T12:59:06.677Z,85.56
2018-12-12T13:01:35.366Z,84.80
2018-12-12T13:04:09.472Z,85.00
2018-12-12T13:06:35.153Z,84.96
2018-12-12T13:09:04.876Z,85.50
2018-12-12T13:11:33.367Z,85.24
2018-12-12T13:14:01.954Z,85.51
2018-12-12T13:16:30.564Z,85.44
2018-12-12T13:18:59.056Z,85.28
2018-12-12T13:21:27.560Z,86.01
2018-12-12T13:23:56.024Z,86.40
2018-12-12T13:26:25.355Z,85.88
2018-12-12T13:28:53.858Z,86.28
2018-12-12T13:31:22.407Z,86.30
2018-12-12T13:33:51.032Z,86.29
2018-12-12T13:36:19.559Z,85.78
2018-12-12T13:38:48.084Z,85.88
2018-12-12T13:41:16.548Z,86.12
2018-12-12T13:43:45.644Z,85.33
2018-12-12T13:46:14.146Z,84.95
2018-12-12T13:48:42.744Z,85.16
2018-12-12T13:51:17.664Z,84.97
2018-12-12T13:53:46.242Z,84.71
2018-12-12T13:56:14.784Z,84.77
2018-12-12T13:58:43.249Z,85.17
2018-12-12T14:01:11.880Z,85.99
2018-12-12T14:03:40.488Z,86.46
2018-12-12T14:06:09.009Z,85.95
2018-12-12T14:08:38.554Z,85.80
2018-12-12T14:11:07.066Z,85.90
2018-12-12T14:13:35.575Z,86.46
2018-12-12T14:16:04.121Z,87.20
2018-12-12T14:18:32.639Z,87.19
2018-12-12T14:21:01.159Z,87.21
2018-12-12T14:23:29.763Z,87.30
2018-12-12T14:25:58.253Z,87.11
2018-12-12T14:28:26.800Z,87.79
2018-12-12T14:30:55.325Z,87.95
2018-12-12T14:33:23.883Z,87.73
2018-12-12T14:35:53.116Z,87.68
2018-12-12T14:38:21.663Z,87.75
2018-12-12T14:40:50.149Z,87.85
2018-12-12T14:43:18.677Z,87.91
2018-12-12T14:45:47.181Z,87.92
2018-12-12T14:48:15.677Z,87.29
2018-12-12T14:50:44.985Z,87.88
2018-12-12T14:53:13.512Z,88.24
2018-12-12T14:55:42.058Z,89.57
2018-12-12T14:58:11.032Z,89.83
2018-12-12T15:00:40.930Z,89.69
2018-12-12T15:03:09.466Z,89.87
2018-12-12T15:05:37.993Z,90.67
2018-12-12T15:08:06.488Z,90.14
2018-12-12T15:10:35.009Z,90.34
2018-12-12T15:13:03.500Z,91.34
2018-12-12T15:15:33.024Z,91.13
2018-12-12T15:18:01.553Z,91.68
2018-12-12T15:20:30.177Z,90.91
2018-12-12T15:22:59.374Z,91.75
2018-12-12T15:25:27.930Z,91.06
2018-12-12T15:27:57.208Z,91.62
2018-12-12T15:30:25.685Z,92.08
2018-12-12T15:32:54.253Z,92.42
2018-12-12T15:35:22.782Z,92.09
2018-12-12T15:37:51.303Z,91.94
2018-12-12T15:40:19.994Z,91.85
2018-12-12T15:42:48.476Z,91.72
2018-12-12T15:45:16.971Z,91.70
2018-12-12T15:47:45.496Z,91.57
2018-12-12T15:50:13.972Z,91.87
2018-12-12T15:52:42.497Z,92.50
2018-12-12T15:55:11.028Z,92.40
2018-12-12T15:57:39.508Z,92.32
2018-12-12T16:00:09.333Z,92.42
2018-12-12T16:02:38.709Z,92.41
2018-12-12T16:05:07.176Z,91.69
2018-12-12T16:07:35.734Z,91.55
2018-12-12T16:10:04.975Z,91.40
2018-12-12T16:12:33.512Z,91.88
2018-12-12T16:15:02.550Z,91.47
2018-12-12T16:17:31.092Z,92.15
2018-12-12T16:19:59.621Z,91.99
2018-12-12T16:22:31.109Z,91.66
2018-12-12T16:24:59.628Z,91.68
2018-12-12T16:27:28.885Z,91.56
2018-12-12T16:29:57.444Z,91.94
2018-12-12T16:32:26.785Z,91.76
2018-12-12T16:34:55.697Z,92.21
2018-12-12T16:37:24.552Z,91.71
2018-12-12T16:39:53.046Z,92.50
2018-12-12T16:42:21.544Z,92.54
2018-12-12T16:44:50.607Z,92.28
2018-12-12T16:47:19.292Z,93.20
2018-12-12T16:49:47.781Z,93.06
2018-12-12T16:52:16.523Z,93.12
2018-12-12T16:54:45.119Z,92.83
2018-12-12T16:57:13.641Z,92.95
2018-12-12T16:59:42.128Z,93.39
2018-12-12T17:02:10.648Z,92.90
2018-12-12T17:04:39.823Z,92.97
2018-12-12T17:07:08.535Z,92.67
2018-12-12T17:09:37.028Z,92.00
2018-12-12T17:12:05.545Z,91.46
2018-12-12T17:14:34.015Z,90.77
2018-12-12T17:17:02.876Z,90.63
2018-12-12T17:19:31.395Z,90.47
2018-12-12T17:21:59.923Z,89.86
2018-12-12T17:24:28.585Z,89.64
2018-12-12T17:26:57.089Z,89.41
2018-12-12T17:29:25.898Z,89.56
2018-12-12T17:31:54.476Z,89.71
2018-12-12T17:34:23.008Z,89.23
2018-12-12T17:36:51.703Z,88.94
2018-12-12T17:39:20.244Z,88.79
2018-12-12T17:41:48.732Z,88.92
2018-12-12T17:44:17.363Z,89.15
2018-12-12T17:46:45.872Z,89.01
2018-12-12T17:49:14.401Z,88.78
2018-12-12T17:51:42.888Z,88.75
2018-12-12T17:54:11.432Z,89.19
2018-12-12T17:56:39.931Z,88.95
2018-12-12T17:59:08.570Z,88.41
2018-12-12T18:01:37.090Z,88.08
2018-12-12T18:04:06.524Z,88.12
2018-12-12T18:06:35.198Z,89.37
2018-12-12T18:09:04.542Z,88.43
2018-12-12T18:11:33.197Z,88.64
2018-12-12T18:14:01.788Z,88.71
2018-12-12T18:16:30.491Z,88.55
2018-12-12T18:18:59.741Z,88.97
2018-12-12T18:21:28.581Z,88.88
2018-12-12T18:23:57.242Z,88.32
2018-12-12T18:26:26.060Z,88.47
2018-12-12T18:28:54.609Z,88.78
2018-12-12T18:31:23.331Z,88.91
2018-12-12T18:33:52.172Z,88.47
2018-12-12T18:36:20.892Z,88.48
2018-12-12T18:38:50.231Z,89.19
2018-12-12T18:41:20.854Z,88.75
2018-12-12T18:43:49.553Z,89.21
2018-12-12T18:46:18.640Z,89.71
2018-12-12T18:48:47.199Z,90.03
2018-12-12T18:51:15.677Z,90.47
2018-12-12T18:53:44.347Z,90.13
2018-12-12T18:56:13.819Z,90.60
2018-12-12T18:58:42.457Z,90.41
2018-12-12T19:01:11.044Z,90.78
2018-12-12T19:03:40.248Z,90.77
2018-12-12T19:06:08.728Z,91.40
2018-12-12T19:08:37.218Z,90.72
2018-12-12T19:11:05.733Z,91.25
2018-12-12T19:13:34.433Z,91.98
2018-12-12T19:16:03.222Z,92.11
2018-12-12T19:18:32.096Z,92.52
2018-12-12T19:21:00.727Z,92.61
2018-12-12T19:23:29.641Z,92.60
2018-12-12T19:25:58.147Z,92.50
2018-12-12T19:28:26.686Z,92.19
2018-12-12T19:30:55.229Z,91.41
2018-12-12T19:33:23.856Z,91.58
2018-12-12T19:35:52.442Z,91.61
2018-12-12T19:38:21.459Z,91.37
2018-12-12T19:40:50.039Z,91.32
2018-12-12T19:43:18.734Z,91.86
2018-12-12T19:45:47.249Z,92.03
2018-12-12T19:48:15.802Z,91.95
2018-12-12T19:50:44.476Z,91.43
2018-12-12T19:53:13.065Z,91.73
2018-12-12T19:55:41.822Z,91.62
2018-12-12T19:58:10.455Z,92.69
2018-12-12T20:00:39.053Z,92.86
2018-12-12T20:03:08.410Z,92.42
2018-12-12T20:05:41.360Z,92.23
2018-12-12T20:08:08.109Z,91.79
2018-12-12T20:10:36.732Z,92.00
2018-12-12T20:13:05.377Z,92.08
2018-12-12T20:15:39.007Z,91.80
2018-12-12T20:18:07.510Z,91.97
2018-12-12T20:20:36.107Z,92.66
2018-12-12T20:23:04.725Z,92.47
2018-12-12T20:25:33.305Z,92.20
2018-12-12T20:28:01.829Z,91.96
2018-12-12T20:30:35.289Z,92.71
2018-12-12T20:33:00.972Z,92.67
2018-12-12T20:35:29.459Z,92.76
2018-12-12T20:37:58.701Z,92.54
2018-12-12T20:40:27.281Z,93.46
2018-12-12T20:42:55.824Z,94.22
2018-12-12T20:45:24.441Z,93.65
2018-12-12T20:47:52.968Z,93.24
2018-12-12T20:50:21.543Z,92.60
2018-12-12T20:52:50.016Z,92.61
2018-12-12T20:55:18.523Z,93.28
2018-12-12T20:57:47.004Z,93.45
2018-12-12T21:00:15.605Z,93.63
2018-12-12T21:02:44.141Z,94.17
2018-12-12T21:05:12.793Z,94.32
2018-12-12T21:07:42.470Z,94.15
2018-12-12T21:10:11.085Z,93.13
2018-12-12T21:12:39.577Z,92.87
2018-12-12T21:15:08.946Z,92.23
2018-12-12T21:17:37.690Z,92.06
2018-12-12T21:20:08.240Z,92.01
2018-12-12T21:22:36.798Z,92.66
2018-12-12T21:25:06.240Z,93.37
2018-12-12T21:27:34.835Z,93.23
2018-12-12T21:30:03.562Z,93.79
2018-12-12T21:32:32.133Z,93.98
2018-12-12T21:35:00.636Z,94.38
2018-12-12T21:37:29.131Z,95.05
2018-12-12T21:39:57.741Z,94.96
2018-12-12T21:42:26.301Z,95.35
2018-12-12T21:44:54.825Z,94.46
2018-12-12T21:47:23.488Z,94.89
2018-12-12T21:49:52.065Z,94.65
2018-12-12T21:52:21.142Z,93.80
2018-12-12T21:54:49.688Z,93.76
2018-12-12T21:57:18.223Z,94.28
2018-12-12T21:59:47.428Z,94.17
2018-12-12T22:02:15.986Z,93.51
2018-12-12T22:04:44.507Z,93.53
2018-12-12T22:07:13.061Z,92.82
2018-12-12T22:09:41.609Z,92.03
2018-12-12T22:12:10.092Z,92.87
2018-12-12T22:14:38.639Z,92.65
2018-12-12T22:17:07.183Z,91.91
2018-12-12T22:19:35.712Z,91.60
2018-12-12T22:22:04.234Z,91.80
2018-12-12T22:24:32.834Z,92.12
2018-12-12T22:27:01.416Z,92.97
2018-12-12T22:29:30.425Z,93.59
2018-12-12T22:31:59.111Z,93.99
2018-12-12T22:34:27.701Z,93.55
2018-12-12T22:36:56.877Z,93.80
2018-12-12T22:39:25.401Z,93.57
2018-12-12T22:41:53.922Z,93.52
2018-12-12T22:44:22.441Z,93.77
2018-12-12T22:46:50.975Z,94.26
2018-12-12T22:49:19.542Z,94.36
2018-12-12T22:51:48.263Z,94.37
2018-12-12T22:54:17.427Z,93.94
2018-12-12T22:56:46.014Z,94.03
2018-12-12T22:59:14.526Z,94.38
2018-12-12T23:01:43.104Z,94.82
2018-12-12T23:04:12.149Z,94.83
2018-12-12T23:06:40.803Z,94.44
2018-12-12T23:09:09.303Z,95.61
2018-12-12T23:11:38.045Z,95.45
2018-12-12T23:14:06.600Z,96.01
2018-12-12T23:16:35.102Z,95.54
2018-12-12T23:19:03.647Z,95.22
2018-12-12T23:21:32.144Z,95.97
2018-12-12T23:24:00.743Z,96.09
2018-12-12T23:26:29.261Z,96.13
2018-12-12T23:28:57.774Z,96.34
2018-12-12T23:31:26.333Z,96.98
2018-12-12T23:33:54.861Z,97.34
2018-12-12T23:36:26.912Z,96.64
2018-12-12T23:38:54.657Z,96.41
2018-12-12T23:41:23.214Z,96.54
2018-12-12T23:43:51.683Z,96.93
2018-12-12T23:46:20.180Z,96.39
2018-12-12T23:48:48.781Z,96.52
2018-12-12T23:51:17.288Z,96.67
2018-12-12T23:53:45.775Z,96.01
2018-12-12T23:56:14.394Z,96.43
2018-12-12T23:58:42.881Z,96.11
